createdAt,value
2019-01-13T07:11:54.718Z,8.00
2019-01-13T07:14:27.414Z,8.00
2019-01-13T07:17:00.078Z,8.00
2019-01-13T07:19:32.743Z,8.00
2019-01-13T07:22:05.427Z,8.00
2019-01-13T07:24:38.090Z,8.00
2019-01-13T07:27:10.999Z,8.00
2019-01-13T07:29:43.709Z,8.10
2019-01-13T07:32:16.601Z,8.10
2019-01-13T07:34:49.282Z,8.10
2019-01-13T07:37:21.969Z,8.10
2019-01-13T07:39:54.644Z,8.10
2019-01-13T07:44:59.714Z,8.20
2019-01-13T07:47:32.403Z,8.20
2019-01-13T07:50:06.534Z,8.20
2019-01-13T07:52:39.188Z,8.30
2019-01-13T07:55:13.938Z,8.30
2019-01-13T07:57:46.599Z,8.30
2019-01-13T08:00:30.306Z,8.30
2019-01-13T08:03:04.400Z,8.30
2019-01-13T08:05:37.082Z,8.40
2019-01-13T08:08:09.990Z,8.40
2019-01-13T08:10:42.674Z,8.40
2019-01-13T08:13:15.342Z,8.40
2019-01-13T08:15:48.011Z,8.40
2019-01-13T08:18:20.909Z,8.40
2019-01-13T08:20:53.586Z,8.40
2019-01-13T08:23:26.272Z,8.50
2019-01-13T08:25:59.398Z,8.50
2019-01-13T08:28:32.091Z,8.60
2019-01-13T08:31:04.765Z,8.50
2019-01-13T08:33:37.901Z,8.50
2019-01-13T08:36:10.574Z,8.70
2019-01-13T08:38:43.237Z,8.60
2019-01-13T08:43:48.283Z,8.60
2019-01-13T08:46:20.998Z,8.60
2019-01-13T08:48:53.662Z,8.60
2019-01-13T08:51:26.347Z,8.60
2019-01-13T08:53:59.018Z,8.60
2019-01-13T08:56:31.958Z,8.60
2019-01-13T08:59:04.610Z,8.60
2019-01-13T09:01:37.285Z,8.70
2019-01-13T09:04:10.240Z,8.70
2019-01-13T09:06:42.913Z,8.70
2019-01-13T09:09:15.581Z,8.70
2019-01-13T09:11:48.246Z,8.70
2019-01-13T09:14:20.902Z,8.70
2019-01-13T09:16:53.570Z,8.70
2019-01-13T09:19:26.237Z,8.80
2019-01-13T09:21:58.913Z,8.70
2019-01-13T09:24:31.578Z,8.70
2019-01-13T09:27:04.254Z,8.70
2019-01-13T09:29:42.443Z,8.80
2019-01-13T09:32:11.543Z,8.70
2019-01-13T09:34:44.217Z,8.70
2019-01-13T09:37:16.902Z,8.80
2019-01-13T09:42:21.950Z,8.80
2019-01-13T09:44:54.610Z,8.80
2019-01-13T09:47:27.318Z,8.80
2019-01-13T09:50:00.095Z,8.80
2019-01-13T09:52:32.836Z,8.80
2019-01-13T09:55:06.679Z,8.80
2019-01-13T09:57:39.378Z,8.80
2019-01-13T10:00:23.825Z,8.80
2019-01-13T10:02:56.502Z,8.80
2019-01-13T10:05:29.170Z,8.80
2019-01-13T10:08:01.878Z,8.80
2019-01-13T10:10:34.556Z,8.80
2019-01-13T10:13:07.223Z,8.80
2019-01-13T10:15:39.876Z,8.80
2019-01-13T10:18:12.557Z,8.80
2019-01-13T10:20:45.233Z,8.80
2019-01-13T10:23:17.938Z,8.80
2019-01-13T10:25:50.607Z,8.80
2019-01-13T10:28:23.290Z,8.80
2019-01-13T10:31:02.982Z,8.40
2019-01-13T10:33:30.334Z,8.80
2019-01-13T10:38:35.426Z,8.80
2019-01-13T10:41:08.323Z,8.80
2019-01-13T10:43:41.043Z,8.80
2019-01-13T10:46:13.691Z,8.80
2019-01-13T10:48:46.395Z,8.80
2019-01-13T10:51:19.290Z,8.80
2019-01-13T10:53:51.982Z,8.80
2019-01-13T10:56:24.675Z,8.80
2019-01-13T10:58:57.709Z,8.80
2019-01-13T11:01:30.366Z,8.80
2019-01-13T11:04:03.302Z,8.80
2019-01-13T11:06:35.958Z,8.80
2019-01-13T11:09:09.470Z,8.80
2019-01-13T11:11:42.119Z,8.80
2019-01-13T11:14:14.794Z,8.80
2019-01-13T11:16:47.472Z,8.80
2019-01-13T11:19:20.139Z,8.80
2019-01-13T11:21:52.819Z,8.80
2019-01-13T11:24:25.501Z,8.90
2019-01-13T11:26:58.156Z,8.90
2019-01-13T11:29:32.762Z,8.90
2019-01-13T11:32:05.222Z,9.00
2019-01-13T11:34:37.878Z,9.10
2019-01-13T11:37:10.546Z,9.00
2019-01-13T11:39:43.263Z,9.00
2019-01-13T11:42:16.203Z,9.00
2019-01-13T11:44:48.961Z,9.10
2019-01-13T11:47:21.626Z,9.00
2019-01-13T11:49:54.302Z,9.00
2019-01-13T11:52:26.970Z,9.00
2019-01-13T11:54:59.735Z,9.00
2019-01-13T11:57:32.399Z,9.00
2019-01-13T12:00:11.902Z,9.00
2019-01-13T12:02:44.559Z,9.00
2019-01-13T12:05:17.249Z,8.90
2019-01-13T12:07:49.935Z,8.90
2019-01-13T12:10:22.634Z,8.90
2019-01-13T12:12:55.303Z,8.90
2019-01-13T12:15:28.185Z,8.90
2019-01-13T12:18:00.858Z,8.90
2019-01-13T12:20:33.573Z,8.90
2019-01-13T12:23:06.242Z,8.90
2019-01-13T12:25:38.914Z,8.90
2019-01-13T12:28:11.826Z,9.00
2019-01-13T12:30:44.510Z,9.00
2019-01-13T12:33:24.307Z,9.00
2019-01-13T12:35:51.602Z,9.00
2019-01-13T12:38:24.262Z,9.00
2019-01-13T12:40:57.191Z,9.00
2019-01-13T12:43:29.922Z,9.00
2019-01-13T12:46:02.601Z,9.00
2019-01-13T12:48:35.262Z,9.00
2019-01-13T12:51:07.936Z,9.00
2019-01-13T12:53:40.634Z,9.00
2019-01-13T12:56:13.597Z,9.00
2019-01-13T12:58:46.486Z,9.00
2019-01-13T13:01:19.177Z,9.00
2019-01-13T13:03:51.831Z,9.00
2019-01-13T13:06:24.519Z,9.00
2019-01-13T13:08:57.178Z,9.00
2019-01-13T13:11:29.895Z,9.00
2019-01-13T13:14:02.563Z,9.00
2019-01-13T13:16:35.524Z,9.00
2019-01-13T13:19:08.190Z,9.00
2019-01-13T13:21:40.866Z,9.00
2019-01-13T13:24:13.520Z,9.00
2019-01-13T13:26:46.205Z,9.00
2019-01-13T13:29:18.862Z,9.00
2019-01-13T13:31:51.518Z,9.00
2019-01-13T13:34:24.189Z,9.00
2019-01-13T13:36:56.866Z,9.00
2019-01-13T13:39:29.555Z,9.00
2019-01-13T13:42:02.266Z,9.00
2019-01-13T13:44:34.935Z,9.00
2019-01-13T13:47:07.621Z,9.00
2019-01-13T13:49:40.278Z,9.00
2019-01-13T13:52:12.982Z,9.00
2019-01-13T13:54:45.642Z,9.00
2019-01-13T13:57:18.328Z,9.00
2019-01-13T13:59:50.970Z,9.00
2019-01-13T14:02:23.638Z,9.00
2019-01-13T14:04:56.286Z,9.00
2019-01-13T14:07:28.987Z,9.00
2019-01-13T14:10:01.644Z,9.00
2019-01-13T14:12:34.364Z,9.00
2019-01-13T14:15:07.696Z,9.00
2019-01-13T14:17:40.518Z,9.00
2019-01-13T14:20:14.809Z,9.00
2019-01-13T14:22:47.742Z,9.00
2019-01-13T14:25:20.410Z,9.00
2019-01-13T14:27:53.103Z,8.90
2019-01-13T14:30:26.146Z,9.00
2019-01-13T14:32:58.808Z,8.90
2019-01-13T14:35:31.467Z,8.90
2019-01-13T14:38:04.259Z,8.90
2019-01-13T14:40:36.909Z,8.90
2019-01-13T14:43:09.606Z,8.90
2019-01-13T14:45:42.251Z,8.90
2019-01-13T14:48:14.950Z,8.90
2019-01-13T14:50:47.626Z,8.90
2019-01-13T14:53:20.490Z,8.90
2019-01-13T14:55:53.173Z,8.90
2019-01-13T14:58:25.898Z,8.90
2019-01-13T15:00:58.564Z,8.90
2019-01-13T15:03:31.250Z,8.90
2019-01-13T15:06:03.919Z,8.90
2019-01-13T15:08:36.902Z,8.90
2019-01-13T15:11:09.563Z,8.90
2019-01-13T15:13:42.301Z,8.90
2019-01-13T15:16:14.955Z,8.90
2019-01-13T15:18:47.674Z,8.90
2019-01-13T15:21:20.340Z,8.90
2019-01-13T15:23:53.378Z,8.90
2019-01-13T15:26:26.058Z,8.90
2019-01-13T15:28:58.738Z,8.80
2019-01-13T15:31:31.414Z,8.80
2019-01-13T15:34:07.362Z,8.80
2019-01-13T15:36:38.534Z,8.80
2019-01-13T15:39:11.215Z,8.80
2019-01-13T15:41:43.884Z,8.80
2019-01-13T15:44:16.574Z,8.80
2019-01-13T15:46:49.470Z,8.80
2019-01-13T15:49:22.155Z,8.80
2019-01-13T15:51:54.946Z,8.80
2019-01-13T15:54:27.891Z,8.80
2019-01-13T15:57:00.577Z,8.80
2019-01-13T15:59:33.271Z,8.80
2019-01-13T16:02:05.931Z,8.80
2019-01-13T16:04:38.626Z,8.80
2019-01-13T16:07:11.309Z,8.80
2019-01-13T16:09:44.006Z,8.80
2019-01-13T16:12:16.672Z,8.80
2019-01-13T16:14:49.369Z,8.70
2019-01-13T16:17:22.051Z,8.80
2019-01-13T16:19:54.738Z,8.80
2019-01-13T16:22:27.438Z,8.70
2019-01-13T16:25:00.234Z,8.70
2019-01-13T16:27:32.902Z,8.70
2019-01-13T16:30:09.256Z,8.70
2019-01-13T16:32:41.942Z,8.70
2019-01-13T16:35:14.621Z,8.70
2019-01-13T16:37:47.410Z,8.70
2019-01-13T16:40:21.770Z,8.70
2019-01-13T16:42:54.455Z,8.70
2019-01-13T16:45:27.126Z,8.70
2019-01-13T16:48:00.082Z,8.70
2019-01-13T16:50:32.771Z,8.70
2019-01-13T16:53:06.011Z,8.70
2019-01-13T16:55:38.992Z,8.70
2019-01-13T16:58:11.706Z,8.70
2019-01-13T17:00:44.636Z,8.70
2019-01-13T17:03:17.302Z,8.70
2019-01-13T17:05:49.990Z,8.70
2019-01-13T17:08:22.658Z,8.70
2019-01-13T17:10:55.339Z,8.70
2019-01-13T17:13:28.002Z,8.70
2019-01-13T17:16:00.670Z,8.70
2019-01-13T17:18:33.332Z,8.70
2019-01-13T17:21:06.020Z,8.70
2019-01-13T17:23:38.687Z,8.70
2019-01-13T17:26:11.430Z,8.70
2019-01-13T17:28:44.110Z,8.70
2019-01-13T17:31:16.883Z,8.70
2019-01-13T17:33:49.551Z,8.70
2019-01-13T17:36:22.246Z,8.70
2019-01-13T17:38:55.654Z,8.70
2019-01-13T17:41:28.628Z,8.70
2019-01-13T17:44:01.542Z,8.70
2019-01-13T17:46:34.268Z,8.70
2019-01-13T17:49:06.922Z,8.70
2019-01-13T17:51:39.710Z,8.70
2019-01-13T17:54:12.423Z,8.70
2019-01-13T17:56:45.262Z,8.70
2019-01-13T17:59:17.920Z,8.70
2019-01-13T18:01:53.899Z,8.70
2019-01-13T18:04:26.596Z,8.70
2019-01-13T18:06:59.398Z,8.60
2019-01-13T18:09:32.078Z,8.60
2019-01-13T18:12:04.822Z,8.60
2019-01-13T18:14:37.478Z,8.60
2019-01-13T18:17:10.162Z,8.60
2019-01-13T18:19:42.837Z,8.60
2019-01-13T18:22:15.514Z,8.50
2019-01-13T18:24:48.162Z,8.50
2019-01-13T18:27:20.867Z,8.40
2019-01-13T18:29:53.559Z,8.20
2019-01-13T18:32:26.346Z,8.20
2019-01-13T18:34:59.010Z,8.10
2019-01-13T18:37:31.711Z,8.10
2019-01-13T18:40:05.771Z,8.10
2019-01-13T18:42:38.469Z,8.10
2019-01-13T18:45:11.166Z,8.10
2019-01-13T18:47:43.947Z,8.20
2019-01-13T18:50:17.634Z,8.30
2019-01-13T18:52:56.345Z,8.40
2019-01-13T18:55:29.051Z,8.40
2019-01-13T18:58:02.188Z,8.50
2019-01-13T19:00:35.438Z,8.50
2019-01-13T19:03:08.158Z,8.50
2019-01-13T19:05:40.848Z,8.60
2019-01-13T19:08:13.750Z,8.60
2019-01-13T19:10:59.829Z,8.60
2019-01-13T19:13:44.734Z,8.60
2019-01-13T19:16:18.014Z,8.60
2019-01-13T19:18:50.711Z,8.60
2019-01-13T19:21:23.395Z,8.60
2019-01-13T19:23:56.061Z,8.60
2019-01-13T19:26:28.715Z,8.50
2019-01-13T19:29:01.830Z,8.50
2019-01-13T19:31:34.737Z,8.50
2019-01-13T19:34:07.455Z,8.50
2019-01-13T19:36:40.174Z,8.50
2019-01-13T19:39:13.090Z,8.50
2019-01-13T19:41:45.743Z,8.50
2019-01-13T19:44:18.546Z,8.10
2019-01-13T19:46:51.219Z,7.50
2019-01-13T19:49:24.159Z,7.20
2019-01-13T19:51:56.832Z,6.90
2019-01-13T19:54:29.731Z,6.80
2019-01-13T19:57:02.631Z,6.70
2019-01-13T19:59:35.311Z,6.70
2019-01-13T20:02:07.984Z,6.70
2019-01-13T20:04:40.646Z,6.70
2019-01-13T20:07:13.320Z,6.80
2019-01-13T20:09:46.026Z,6.90
2019-01-13T20:12:18.699Z,7.00
2019-01-13T20:14:51.678Z,7.10
2019-01-13T20:17:24.337Z,7.10
2019-01-13T20:19:58.136Z,7.10
2019-01-13T20:22:30.789Z,7.00
